sensor_id;sensor_type;location;lat;lon;timestamp;temperature;humidity
22288;DHT22;11312;51.464;6.968;2023-02-28T00:00:16;0.40;99.90
22288;DHT22;11312;51.464;6.968;2023-02-28T00:02:43;0.40;99.90
22288;DHT22;11312;51.464;6.968;2023-02-28T00:05:10;0.40;99.90
22288;DHT22;11312;51.464;6.968;2023-02-28T00:07:36;0.30;99.90
22288;DHT22;11312;51.464;6.968;2023-02-28T00:10:03;0.30;99.90
22288;DHT22;11312;51.464;6.968;2023-02-28T00:12:28;0.20;99.90
22288;DHT22;11312;51.464;6.968;2023-02-28T00:14:54;0.30;99.90
22288;DHT22;11312;51.464;6.968;2023-02-28T00:17:20;0.20;99.90
22288;DHT22;11312;51.464;6.968;2023-02-28T00:19:47;0.20;99.90
22288;DHT22;11312;51.464;6.968;2023-02-28T00:22:14;0.20;99.90
22288;DHT22;11312;51.464;6.968;2023-02-28T00:24:40;0.20;99.90
22288;DHT22;11312;51.464;6.968;2023-02-28T00:27:05;0.20;99.90
22288;DHT22;11312;51.464;6.968;2023-02-28T00:29:32;0.20;99.90
22288;DHT22;11312;51.464;6.968;2023-02-28T00:31:57;0.20;99.90
22288;DHT22;11312;51.464;6.968;2023-02-28T00:34:23;0.20;99.90
22288;DHT22;11312;51.464;6.968;2023-02-28T00:36:49;0.20;99.90
22288;DHT22;11312;51.464;6.968;2023-02-28T00:39:15;0.20;99.90
22288;DHT22;11312;51.464;6.968;2023-02-28T00:41:41;0.30;99.90
22288;DHT22;11312;51.464;6.968;2023-02-28T00:44:06;0.20;99.90
22288;DHT22;11312;51.464;6.968;2023-02-28T00:46:32;0.20;99.90
22288;DHT22;11312;51.464;6.968;2023-02-28T00:48:57;0.10;99.90
22288;DHT22;11312;51.464;6.968;2023-02-28T00:51:23;0.10;99.90
22288;DHT22;11312;51.464;6.968;2023-02-28T00:53:49;0.10;99.90
22288;DHT22;11312;51.464;6.968;2023-02-28T00:56:14;0.10;99.90
22288;DHT22;11312;51.464;6.968;2023-02-28T00:58:40;0.10;99.90
22288;DHT22;11312;51.464;6.968;2023-02-28T01:01:06;0.00;99.90
22288;DHT22;11312;51.464;6.968;2023-02-28T01:03:32;0.20;99.90
22288;DHT22;11312;51.464;6.968;2023-02-28T01:05:58;0.00;99.90
22288;DHT22;11312;51.464;6.968;2023-02-28T01:08:24;0.00;99.90
22288;DHT22;11312;51.464;6.968;2023-02-28T01:10:49;0.10;99.90
22288;DHT22;11312;51.464;6.968;2023-02-28T01:13:16;0.00;99.90
22288;DHT22;11312;51.464;6.968;2023-02-28T01:15:45;0.00;99.90
22288;DHT22;11312;51.464;6.968;2023-02-28T01:18:11;0.00;99.90
22288;DHT22;11312;51.464;6.968;2023-02-28T01:20:38;0.00;99.90
22288;DHT22;11312;51.464;6.968;2023-02-28T01:23:03;-0.10;99.90
22288;DHT22;11312;51.464;6.968;2023-02-28T01:25:29;-0.10;99.90
22288;DHT22;11312;51.464;6.968;2023-02-28T01:27:55;-0.20;99.90
22288;DHT22;11312;51.464;6.968;2023-02-28T01:30:20;-0.10;99.90
22288;DHT22;11312;51.464;6.968;2023-02-28T01:32:46;-0.10;99.90
22288;DHT22;11312;51.464;6.968;2023-02-28T01:35:12;-0.20;99.90
22288;DHT22;11312;51.464;6.968;2023-02-28T01:37:37;-0.30;99.90
22288;DHT22;11312;51.464;6.968;2023-02-28T01:40:03;-0.20;99.90
22288;DHT22;11312;51.464;6.968;2023-02-28T01:42:29;-0.20;99.90
22288;DHT22;11312;51.464;6.968;2023-02-28T01:47:27;-0.30;99.90
22288;DHT22;11312;51.464;6.968;2023-02-28T01:49:53;-0.30;99.90
22288;DHT22;11312;51.464;6.968;2023-02-28T01:52:19;-0.30;99.90
22288;DHT22;11312;51.464;6.968;2023-02-28T01:54:50;-0.30;99.90
22288;DHT22;11312;51.464;6.968;2023-02-28T01:57:18;-0.30;99.90
22288;DHT22;11312;51.464;6.968;2023-02-28T01:59:57;-0.30;99.90
22288;DHT22;11312;51.464;6.968;2023-02-28T02:02:27;-0.40;99.90
22288;DHT22;11312;51.464;6.968;2023-02-28T02:04:55;-0.30;99.90
22288;DHT22;11312;51.464;6.968;2023-02-28T02:07:22;-0.40;99.90
22288;DHT22;11312;51.464;6.968;2023-02-28T02:09:48;-0.50;99.90
22288;DHT22;11312;51.464;6.968;2023-02-28T02:12:26;-0.40;99.90
22288;DHT22;11312;51.464;6.968;2023-02-28T02:15:24;-0.60;99.90
22288;DHT22;11312;51.464;6.968;2023-02-28T02:17:54;-0.60;99.90
22288;DHT22;11312;51.464;6.968;2023-02-28T02:34:58;-0.60;99.90
22288;DHT22;11312;51.464;6.968;2023-02-28T02:37:36;-0.70;99.90
22288;DHT22;11312;51.464;6.968;2023-02-28T02:40:16;-0.70;99.90
22288;DHT22;11312;51.464;6.968;2023-02-28T02:42:52;0.10;99.90
22288;DHT22;11312;51.464;6.968;2023-02-28T02:45:35;-0.90;99.90
22288;DHT22;11312;51.464;6.968;2023-02-28T02:48:06;-0.80;99.90
22288;DHT22;11312;51.464;6.968;2023-02-28T02:50:38;-0.90;99.90
22288;DHT22;11312;51.464;6.968;2023-02-28T02:53:06;-0.90;99.90
22288;DHT22;11312;51.464;6.968;2023-02-28T02:55:37;-0.90;99.90
22288;DHT22;11312;51.464;6.968;2023-02-28T02:58:08;-0.90;99.90
22288;DHT22;11312;51.464;6.968;2023-02-28T03:00:54;-0.80;99.90
22288;DHT22;11312;51.464;6.968;2023-02-28T03:03:21;-0.80;99.90
22288;DHT22;11312;51.464;6.968;2023-02-28T03:05:55;-0.80;99.90
22288;DHT22;11312;51.464;6.968;2023-02-28T03:08:21;-0.90;99.90
22288;DHT22;11312;51.464;6.968;2023-02-28T03:10:52;-0.90;99.90
22288;DHT22;11312;51.464;6.968;2023-02-28T03:22:01;-1.00;99.90
22288;DHT22;11312;51.464;6.968;2023-02-28T03:27:36;-1.10;99.90
22288;DHT22;11312;51.464;6.968;2023-02-28T03:33:14;-1.00;99.90
22288;DHT22;11312;51.464;6.968;2023-02-28T03:35:50;-0.90;99.90
22288;DHT22;11312;51.464;6.968;2023-02-28T03:38:27;-1.00;99.90
22288;DHT22;11312;51.464;6.968;2023-02-28T03:41:13;-1.10;99.90
22288;DHT22;11312;51.464;6.968;2023-02-28T03:43:43;-1.10;99.90
22288;DHT22;11312;51.464;6.968;2023-02-28T03:46:13;-1.00;99.90
22288;DHT22;11312;51.464;6.968;2023-02-28T03:48:45;-1.10;99.90
22288;DHT22;11312;51.464;6.968;2023-02-28T03:51:16;-1.10;99.90
22288;DHT22;11312;51.464;6.968;2023-02-28T03:53:56;-1.10;99.90
22288;DHT22;11312;51.464;6.968;2023-02-28T03:56:46;-1.10;99.90
22288;DHT22;11312;51.464;6.968;2023-02-28T03:59:22;-1.10;99.90
22288;DHT22;11312;51.464;6.968;2023-02-28T04:01:50;-1.10;99.90
22288;DHT22;11312;51.464;6.968;2023-02-28T04:04:17;-1.20;99.90
22288;DHT22;11312;51.464;6.968;2023-02-28T04:06:43;-1.10;99.90
22288;DHT22;11312;51.464;6.968;2023-02-28T04:09:12;-1.10;99.90
22288;DHT22;11312;51.464;6.968;2023-02-28T04:11:52;-1.10;99.90
22288;DHT22;11312;51.464;6.968;2023-02-28T04:14:18;-1.20;99.90
22288;DHT22;11312;51.464;6.968;2023-02-28T04:16:44;-1.20;99.90
22288;DHT22;11312;51.464;6.968;2023-02-28T04:19:11;-1.30;99.90
22288;DHT22;11312;51.464;6.968;2023-02-28T04:21:40;-1.30;99.90
22288;DHT22;11312;51.464;6.968;2023-02-28T04:24:07;-1.30;99.90
22288;DHT22;11312;51.464;6.968;2023-02-28T04:26:34;-1.30;99.90
22288;DHT22;11312;51.464;6.968;2023-02-28T04:29:04;-1.30;99.90
22288;DHT22;11312;51.464;6.968;2023-02-28T04:31:30;-1.30;99.90
22288;DHT22;11312;51.464;6.968;2023-02-28T04:33:56;-1.30;99.90
22288;DHT22;11312;51.464;6.968;2023-02-28T04:36:21;-1.30;99.90
22288;DHT22;11312;51.464;6.968;2023-02-28T04:38:49;-1.50;99.90
22288;DHT22;11312;51.464;6.968;2023-02-28T04:41:15;-1.40;99.90
22288;DHT22;11312;51.464;6.968;2023-02-28T04:43:41;-1.40;99.90
22288;DHT22;11312;51.464;6.968;2023-02-28T04:46:08;-1.40;99.90
22288;DHT22;11312;51.464;6.968;2023-02-28T04:48:37;-1.40;99.90
22288;DHT22;11312;51.464;6.968;2023-02-28T04:51:08;-1.40;99.90
22288;DHT22;11312;51.464;6.968;2023-02-28T04:53:34;-1.40;99.90
22288;DHT22;11312;51.464;6.968;2023-02-28T04:56:01;-1.30;99.90
22288;DHT22;11312;51.464;6.968;2023-02-28T04:58:26;-1.30;99.90
22288;DHT22;11312;51.464;6.968;2023-02-28T05:00:54;-1.30;99.90
22288;DHT22;11312;51.464;6.968;2023-02-28T05:03:20;-1.30;99.90
22288;DHT22;11312;51.464;6.968;2023-02-28T05:05:47;-1.30;99.90
22288;DHT22;11312;51.464;6.968;2023-02-28T05:08:13;-1.40;99.90
22288;DHT22;11312;51.464;6.968;2023-02-28T05:10:39;-1.50;1.00
22288;DHT22;11312;51.464;6.968;2023-02-28T05:13:05;-1.50;1.00
22288;DHT22;11312;51.464;6.968;2023-02-28T05:15:31;-1.50;1.00
22288;DHT22;11312;51.464;6.968;2023-02-28T05:17:56;-1.40;1.00
22288;DHT22;11312;51.464;6.968;2023-02-28T05:20:22;-1.50;1.00
22288;DHT22;11312;51.464;6.968;2023-02-28T05:22:49;-1.40;1.00
22288;DHT22;11312;51.464;6.968;2023-02-28T05:25:20;-1.50;1.00
22288;DHT22;11312;51.464;6.968;2023-02-28T05:27:47;-1.50;1.00
22288;DHT22;11312;51.464;6.968;2023-02-28T05:30:13;-1.50;1.00
22288;DHT22;11312;51.464;6.968;2023-02-28T05:32:40;-1.60;1.00
22288;DHT22;11312;51.464;6.968;2023-02-28T05:35:10;-1.50;1.00
22288;DHT22;11312;51.464;6.968;2023-02-28T05:37:37;-1.60;1.00
22288;DHT22;11312;51.464;6.968;2023-02-28T05:40:04;-1.50;1.00
22288;DHT22;11312;51.464;6.968;2023-02-28T05:42:32;-1.50;1.00
22288;DHT22;11312;51.464;6.968;2023-02-28T05:44:57;-1.60;1.00
22288;DHT22;11312;51.464;6.968;2023-02-28T05:47:23;-1.50;1.00
22288;DHT22;11312;51.464;6.968;2023-02-28T05:49:49;-1.60;1.00
22288;DHT22;11312;51.464;6.968;2023-02-28T05:52:14;-1.60;1.00
22288;DHT22;11312;51.464;6.968;2023-02-28T05:54:40;-1.60;1.00
22288;DHT22;11312;51.464;6.968;2023-02-28T05:57:06;-1.50;1.00
22288;DHT22;11312;51.464;6.968;2023-02-28T05:59:32;-1.50;1.00
22288;DHT22;11312;51.464;6.968;2023-02-28T06:01:57;-1.70;1.00
22288;DHT22;11312;51.464;6.968;2023-02-28T06:04:23;-1.80;1.00
22288;DHT22;11312;51.464;6.968;2023-02-28T06:06:49;-1.70;1.00
22288;DHT22;11312;51.464;6.968;2023-02-28T06:09:15;-1.80;1.00
22288;DHT22;11312;51.464;6.968;2023-02-28T06:11:41;-1.80;1.00
22288;DHT22;11312;51.464;6.968;2023-02-28T06:14:07;-1.90;1.00
22288;DHT22;11312;51.464;6.968;2023-02-28T06:16:35;-1.80;1.00
22288;DHT22;11312;51.464;6.968;2023-02-28T06:19:03;-1.80;1.00
22288;DHT22;11312;51.464;6.968;2023-02-28T06:21:29;-1.80;1.00
22288;DHT22;11312;51.464;6.968;2023-02-28T06:23:57;-1.80;1.00
22288;DHT22;11312;51.464;6.968;2023-02-28T06:26:23;-1.80;1.00
22288;DHT22;11312;51.464;6.968;2023-02-28T06:28:49;-1.90;1.00
22288;DHT22;11312;51.464;6.968;2023-02-28T06:31:16;-1.90;1.00
22288;DHT22;11312;51.464;6.968;2023-02-28T06:33:42;-1.80;1.00
22288;DHT22;11312;51.464;6.968;2023-02-28T06:36:09;-1.80;1.00
22288;DHT22;11312;51.464;6.968;2023-02-28T06:38:36;-1.70;1.00
22288;DHT22;11312;51.464;6.968;2023-02-28T06:41:02;-1.70;1.00
22288;DHT22;11312;51.464;6.968;2023-02-28T06:43:29;-1.70;1.00
22288;DHT22;11312;51.464;6.968;2023-02-28T06:45:57;-1.70;1.00
22288;DHT22;11312;51.464;6.968;2023-02-28T06:48:23;-1.70;1.00
22288;DHT22;11312;51.464;6.968;2023-02-28T06:50:49;-1.70;1.00
22288;DHT22;11312;51.464;6.968;2023-02-28T06:53:15;-1.60;1.00
22288;DHT22;11312;51.464;6.968;2023-02-28T06:55:41;-1.50;1.00
22288;DHT22;11312;51.464;6.968;2023-02-28T06:58:07;-1.60;67.00
22288;DHT22;11312;51.464;6.968;2023-02-28T07:00:45;-1.50;99.90
22288;DHT22;11312;51.464;6.968;2023-02-28T07:03:11;-1.40;1.00
22288;DHT22;11312;51.464;6.968;2023-02-28T07:05:38;-1.40;1.00
22288;DHT22;11312;51.464;6.968;2023-02-28T07:08:05;-1.40;1.00
22288;DHT22;11312;51.464;6.968;2023-02-28T07:10:32;-1.30;1.00
22288;DHT22;11312;51.464;6.968;2023-02-28T07:12:58;-1.40;1.00
22288;DHT22;11312;51.464;6.968;2023-02-28T07:15:24;-1.20;99.90
22288;DHT22;11312;51.464;6.968;2023-02-28T07:17:50;-1.20;99.90
22288;DHT22;11312;51.464;6.968;2023-02-28T07:20:16;-1.20;99.90
22288;DHT22;11312;51.464;6.968;2023-02-28T07:22:41;-1.10;99.90
22288;DHT22;11312;51.464;6.968;2023-02-28T07:25:07;-1.00;99.90
22288;DHT22;11312;51.464;6.968;2023-02-28T07:27:33;-1.00;99.90
22288;DHT22;11312;51.464;6.968;2023-02-28T07:29:59;-0.90;99.90
22288;DHT22;11312;51.464;6.968;2023-02-28T07:32:27;-0.90;99.90
22288;DHT22;11312;51.464;6.968;2023-02-28T07:34:53;-0.80;99.90
22288;DHT22;11312;51.464;6.968;2023-02-28T07:37:19;-0.80;99.90
22288;DHT22;11312;51.464;6.968;2023-02-28T07:39:45;-0.80;99.90
22288;DHT22;11312;51.464;6.968;2023-02-28T07:42:11;-0.80;1.00
22288;DHT22;11312;51.464;6.968;2023-02-28T07:44:39;-0.60;99.90
22288;DHT22;11312;51.464;6.968;2023-02-28T07:47:09;-0.50;1.00
22288;DHT22;11312;51.464;6.968;2023-02-28T07:49:35;-0.40;99.90
22288;DHT22;11312;51.464;6.968;2023-02-28T07:52:05;-0.40;1.00
22288;DHT22;11312;51.464;6.968;2023-02-28T07:54:31;-0.40;99.90
22288;DHT22;11312;51.464;6.968;2023-02-28T07:56:57;-0.40;99.90
22288;DHT22;11312;51.464;6.968;2023-02-28T07:59:22;-0.30;99.90
22288;DHT22;11312;51.464;6.968;2023-02-28T08:01:48;-0.20;1.00
22288;DHT22;11312;51.464;6.968;2023-02-28T08:04:16;-0.10;1.00
22288;DHT22;11312;51.464;6.968;2023-02-28T08:06:42;0.10;1.00
22288;DHT22;11312;51.464;6.968;2023-02-28T08:09:08;0.30;99.90
22288;DHT22;11312;51.464;6.968;2023-02-28T08:11:33;0.60;1.00
22288;DHT22;11312;51.464;6.968;2023-02-28T08:13:59;1.10;1.00
22288;DHT22;11312;51.464;6.968;2023-02-28T08:16:24;1.70;1.00
22288;DHT22;11312;51.464;6.968;2023-02-28T08:18:51;2.00;1.00
22288;DHT22;11312;51.464;6.968;2023-02-28T08:21:17;1.90;1.00
22288;DHT22;11312;51.464;6.968;2023-02-28T08:23:42;1.70;45.50
22288;DHT22;11312;51.464;6.968;2023-02-28T08:26:08;2.10;1.00
22288;DHT22;11312;51.464;6.968;2023-02-28T08:28:34;3.00;90.10
22288;DHT22;11312;51.464;6.968;2023-02-28T08:31:00;2.70;99.90
22288;DHT22;11312;51.464;6.968;2023-02-28T08:33:27;2.70;1.00
22288;DHT22;11312;51.464;6.968;2023-02-28T08:35:56;3.40;1.00
22288;DHT22;11312;51.464;6.968;2023-02-28T08:38:23;4.00;99.90
22288;DHT22;11312;51.464;6.968;2023-02-28T08:40:49;3.70;1.00
22288;DHT22;11312;51.464;6.968;2023-02-28T08:43:14;4.10;1.00
22288;DHT22;11312;51.464;6.968;2023-02-28T08:45:40;4.30;1.00
22288;DHT22;11312;51.464;6.968;2023-02-28T08:48:06;4.40;1.00
22288;DHT22;11312;51.464;6.968;2023-02-28T08:50:31;4.60;1.00
22288;DHT22;11312;51.464;6.968;2023-02-28T08:52:57;4.80;1.00
22288;DHT22;11312;51.464;6.968;2023-02-28T08:55:23;5.10;1.00
22288;DHT22;11312;51.464;6.968;2023-02-28T08:57:48;5.50;1.00
22288;DHT22;11312;51.464;6.968;2023-02-28T09:00:14;5.50;1.00
22288;DHT22;11312;51.464;6.968;2023-02-28T09:02:40;5.40;1.00
22288;DHT22;11312;51.464;6.968;2023-02-28T09:05:08;5.10;1.00
22288;DHT22;11312;51.464;6.968;2023-02-28T09:07:33;5.80;1.00
22288;DHT22;11312;51.464;6.968;2023-02-28T09:09:59;7.20;1.00
22288;DHT22;11312;51.464;6.968;2023-02-28T09:12:28;8.60;1.00
22288;DHT22;11312;51.464;6.968;2023-02-28T09:14:57;9.60;1.00
22288;DHT22;11312;51.464;6.968;2023-02-28T09:17:22;9.90;1.00
22288;DHT22;11312;51.464;6.968;2023-02-28T09:19:48;9.20;92.00
22288;DHT22;11312;51.464;6.968;2023-02-28T09:22:14;9.80;92.30
22288;DHT22;11312;51.464;6.968;2023-02-28T09:24:40;10.10;94.60
22288;DHT22;11312;51.464;6.968;2023-02-28T09:27:06;10.20;83.00
22288;DHT22;11312;51.464;6.968;2023-02-28T09:29:33;10.60;81.60
22288;DHT22;11312;51.464;6.968;2023-02-28T09:31:59;12.40;88.20
22288;DHT22;11312;51.464;6.968;2023-02-28T09:34:26;14.20;75.80
22288;DHT22;11312;51.464;6.968;2023-02-28T09:36:51;13.90;66.50
22288;DHT22;11312;51.464;6.968;2023-02-28T09:39:23;14.90;70.60
22288;DHT22;11312;51.464;6.968;2023-02-28T09:41:51;15.40;68.50
22288;DHT22;11312;51.464;6.968;2023-02-28T09:46:55;15.20;59.40
22288;DHT22;11312;51.464;6.968;2023-02-28T09:49:31;13.60;62.00
22288;DHT22;11312;51.464;6.968;2023-02-28T09:54:29;14.70;58.90
22288;DHT22;11312;51.464;6.968;2023-02-28T10:00:22;17.00;51.50
22288;DHT22;11312;51.464;6.968;2023-02-28T10:03:25;17.10;52.70
22288;DHT22;11312;51.464;6.968;2023-02-28T10:05:54;18.10;50.70
22288;DHT22;11312;51.464;6.968;2023-02-28T10:09:00;17.40;52.00
22288;DHT22;11312;51.464;6.968;2023-02-28T10:11:27;16.60;54.70
22288;DHT22;11312;51.464;6.968;2023-02-28T10:17:05;14.50;52.70
22288;DHT22;11312;51.464;6.968;2023-02-28T10:22:18;16.00;55.60
22288;DHT22;11312;51.464;6.968;2023-02-28T10:24:53;16.40;50.00
22288;DHT22;11312;51.464;6.968;2023-02-28T10:27:25;17.50;48.70
22288;DHT22;11312;51.464;6.968;2023-02-28T10:29:53;19.00;50.50
22288;DHT22;11312;51.464;6.968;2023-02-28T10:32:21;16.50;46.40
22288;DHT22;11312;51.464;6.968;2023-02-28T10:34:53;16.10;47.70
22288;DHT22;11312;51.464;6.968;2023-02-28T10:37:20;14.60;45.90
22288;DHT22;11312;51.464;6.968;2023-02-28T10:39:46;13.80;47.90
22288;DHT22;11312;51.464;6.968;2023-02-28T10:42:24;12.60;52.80
22288;DHT22;11312;51.464;6.968;2023-02-28T10:45:15;10.60;57.00
22288;DHT22;11312;51.464;6.968;2023-02-28T10:48:03;8.00;59.00
22288;DHT22;11312;51.464;6.968;2023-02-28T10:56:12;7.30;60.10
22288;DHT22;11312;51.464;6.968;2023-02-28T10:58:49;6.50;63.90
22288;DHT22;11312;51.464;6.968;2023-02-28T11:01:21;8.00;63.90
22288;DHT22;11312;51.464;6.968;2023-02-28T11:03:47;7.40;58.40
22288;DHT22;11312;51.464;6.968;2023-02-28T11:08:55;14.50;55.30
22288;DHT22;11312;51.464;6.968;2023-02-28T11:11:25;14.60;49.60
22288;DHT22;11312;51.464;6.968;2023-02-28T11:13:56;14.00;51.60
22288;DHT22;11312;51.464;6.968;2023-02-28T11:16:33;16.50;47.10
22288;DHT22;11312;51.464;6.968;2023-02-28T11:19:00;16.80;43.60
22288;DHT22;11312;51.464;6.968;2023-02-28T11:26:55;15.50;47.50
22288;DHT22;11312;51.464;6.968;2023-02-28T11:29:30;17.60;47.40
22288;DHT22;11312;51.464;6.968;2023-02-28T11:34:37;19.40;40.80
22288;DHT22;11312;51.464;6.968;2023-02-28T11:37:05;16.30;41.20
22288;DHT22;11312;51.464;6.968;2023-02-28T11:39:32;18.20;43.50
22288;DHT22;11312;51.464;6.968;2023-02-28T11:46:59;24.10;40.10
22288;DHT22;11312;51.464;6.968;2023-02-28T11:49:31;21.80;35.00
22288;DHT22;11312;51.464;6.968;2023-02-28T12:05:30;17.50;42.60
22288;DHT22;11312;51.464;6.968;2023-02-28T12:10:43;19.90;42.20
22288;DHT22;11312;51.464;6.968;2023-02-28T12:13:32;16.80;44.40
22288;DHT22;11312;51.464;6.968;2023-02-28T12:19:20;11.70;49.40
22288;DHT22;11312;51.464;6.968;2023-02-28T12:27:20;13.30;49.20
22288;DHT22;11312;51.464;6.968;2023-02-28T12:29:54;15.40;46.90
22288;DHT22;11312;51.464;6.968;2023-02-28T12:32:33;17.90;45.10
22288;DHT22;11312;51.464;6.968;2023-02-28T12:35:11;19.60;44.00
22288;DHT22;11312;51.464;6.968;2023-02-28T12:38:10;14.70;41.70
22288;DHT22;11312;51.464;6.968;2023-02-28T12:40:51;14.80;43.90
22288;DHT22;11312;51.464;6.968;2023-02-28T12:43:20;13.40;45.90
22288;DHT22;11312;51.464;6.968;2023-02-28T12:45:51;13.40;46.70
22288;DHT22;11312;51.464;6.968;2023-02-28T12:48:37;16.60;45.80
22288;DHT22;11312;51.464;6.968;2023-02-28T12:51:06;20.00;44.70
22288;DHT22;11312;51.464;6.968;2023-02-28T12:53:39;19.50;42.10
22288;DHT22;11312;51.464;6.968;2023-02-28T13:04:32;18.70;44.30
22288;DHT22;11312;51.464;6.968;2023-02-28T13:09:56;19.60;42.00
22288;DHT22;11312;51.464;6.968;2023-02-28T13:12:22;20.70;40.80
22288;DHT22;11312;51.464;6.968;2023-02-28T13:14:49;20.50;37.70
22288;DHT22;11312;51.464;6.968;2023-02-28T13:17:22;18.70;40.20
22288;DHT22;11312;51.464;6.968;2023-02-28T13:24:57;21.00;44.20
22288;DHT22;11312;51.464;6.968;2023-02-28T13:29:52;19.90;41.50
22288;DHT22;11312;51.464;6.968;2023-02-28T13:32:32;20.70;42.50
22288;DHT22;11312;51.464;6.968;2023-02-28T13:39:51;19.80;44.10
22288;DHT22;11312;51.464;6.968;2023-02-28T13:58:59;15.00;45.50
22288;DHT22;11312;51.464;6.968;2023-02-28T14:06:53;20.30;43.20
22288;DHT22;11312;51.464;6.968;2023-02-28T14:09:33;20.20;42.70
22288;DHT22;11312;51.464;6.968;2023-02-28T14:15:03;18.30;46.20
22288;DHT22;11312;51.464;6.968;2023-02-28T14:17:31;18.40;42.80
22288;DHT22;11312;51.464;6.968;2023-02-28T14:19:57;18.30;45.30
22288;DHT22;11312;51.464;6.968;2023-02-28T14:22:58;15.50;43.60
22288;DHT22;11312;51.464;6.968;2023-02-28T14:29:19;15.70;49.20
22288;DHT22;11312;51.464;6.968;2023-02-28T14:31:58;17.20;47.90
22288;DHT22;11312;51.464;6.968;2023-02-28T14:34:54;17.80;46.40
22288;DHT22;11312;51.464;6.968;2023-02-28T14:37:27;17.40;43.90
22288;DHT22;11312;51.464;6.968;2023-02-28T14:39:54;16.30;46.50
22288;DHT22;11312;51.464;6.968;2023-02-28T14:42:49;17.20;48.30
22288;DHT22;11312;51.464;6.968;2023-02-28T14:45:21;17.60;48.40
22288;DHT22;11312;51.464;6.968;2023-02-28T14:47:49;17.20;46.70
22288;DHT22;11312;51.464;6.968;2023-02-28T14:50:23;16.80;47.10
22288;DHT22;11312;51.464;6.968;2023-02-28T14:52:53;16.40;46.70
22288;DHT22;11312;51.464;6.968;2023-02-28T14:55:24;16.20;46.70
22288;DHT22;11312;51.464;6.968;2023-02-28T15:00:54;15.20;49.90
22288;DHT22;11312;51.464;6.968;2023-02-28T15:06:15;15.80;51.20
22288;DHT22;11312;51.464;6.968;2023-02-28T15:08:42;16.00;51.30
22288;DHT22;11312;51.464;6.968;2023-02-28T15:11:18;14.60;50.10
22288;DHT22;11312;51.464;6.968;2023-02-28T15:13:52;13.70;50.00
22288;DHT22;11312;51.464;6.968;2023-02-28T15:16:22;11.30;53.20
22288;DHT22;11312;51.464;6.968;2023-02-28T15:18:51;12.10;55.60
22288;DHT22;11312;51.464;6.968;2023-02-28T15:21:23;11.40;55.10
22288;DHT22;11312;51.464;6.968;2023-02-28T15:23:59;12.30;56.70
22288;DHT22;11312;51.464;6.968;2023-02-28T15:26:31;11.10;55.40
22288;DHT22;11312;51.464;6.968;2023-02-28T15:29:04;11.00;56.60
22288;DHT22;11312;51.464;6.968;2023-02-28T15:31:42;12.00;57.40
22288;DHT22;11312;51.464;6.968;2023-02-28T15:34:22;11.80;57.80
22288;DHT22;11312;51.464;6.968;2023-02-28T15:36:48;10.10;58.90
22288;DHT22;11312;51.464;6.968;2023-02-28T15:39:26;9.90;62.00
22288;DHT22;11312;51.464;6.968;2023-02-28T15:42:18;9.40;64.40
22288;DHT22;11312;51.464;6.968;2023-02-28T15:44:44;8.30;67.10
22288;DHT22;11312;51.464;6.968;2023-02-28T15:47:24;8.00;71.00
22288;DHT22;11312;51.464;6.968;2023-02-28T15:49:55;7.80;70.40
22288;DHT22;11312;51.464;6.968;2023-02-28T15:55:09;7.50;73.40
22288;DHT22;11312;51.464;6.968;2023-02-28T15:57:39;7.50;76.20
22288;DHT22;11312;51.464;6.968;2023-02-28T16:00:09;7.40;76.10
22288;DHT22;11312;51.464;6.968;2023-02-28T16:02:37;7.20;76.90
22288;DHT22;11312;51.464;6.968;2023-02-28T16:07:36;7.00;79.50
22288;DHT22;11312;51.464;6.968;2023-02-28T16:10:03;6.90;79.20
22288;DHT22;11312;51.464;6.968;2023-02-28T16:12:31;6.70;81.70
22288;DHT22;11312;51.464;6.968;2023-02-28T16:15:05;6.60;81.80
22288;DHT22;11312;51.464;6.968;2023-02-28T16:17:35;6.60;83.60
22288;DHT22;11312;51.464;6.968;2023-02-28T16:20:14;6.50;83.40
22288;DHT22;11312;51.464;6.968;2023-02-28T16:22:40;6.50;86.10
22288;DHT22;11312;51.464;6.968;2023-02-28T16:25:15;6.30;84.20
22288;DHT22;11312;51.464;6.968;2023-02-28T16:27:42;6.10;83.80
22288;DHT22;11312;51.464;6.968;2023-02-28T16:30:19;6.10;84.40
22288;DHT22;11312;51.464;6.968;2023-02-28T16:32:46;6.10;86.60
22288;DHT22;11312;51.464;6.968;2023-02-28T16:35:11;6.10;84.70
22288;DHT22;11312;51.464;6.968;2023-02-28T16:37:39;6.10;88.30
22288;DHT22;11312;51.464;6.968;2023-02-28T16:40:06;6.00;85.50
22288;DHT22;11312;51.464;6.968;2023-02-28T16:42:33;5.90;87.70
22288;DHT22;11312;51.464;6.968;2023-02-28T16:44:59;5.80;86.90
22288;DHT22;11312;51.464;6.968;2023-02-28T16:47:24;5.70;87.10
22288;DHT22;11312;51.464;6.968;2023-02-28T16:49:52;5.70;87.00
22288;DHT22;11312;51.464;6.968;2023-02-28T16:52:18;5.80;87.30
22288;DHT22;11312;51.464;6.968;2023-02-28T16:54:43;5.80;88.50
22288;DHT22;11312;51.464;6.968;2023-02-28T16:57:22;5.70;89.20
22288;DHT22;11312;51.464;6.968;2023-02-28T16:59:49;5.60;89.00
22288;DHT22;11312;51.464;6.968;2023-02-28T17:02:18;5.40;90.60
22288;DHT22;11312;51.464;6.968;2023-02-28T17:04:47;5.30;89.20
22288;DHT22;11312;51.464;6.968;2023-02-28T17:07:14;5.40;91.20
22288;DHT22;11312;51.464;6.968;2023-02-28T17:09:42;5.50;90.40
22288;DHT22;11312;51.464;6.968;2023-02-28T17:12:08;5.50;90.70
22288;DHT22;11312;51.464;6.968;2023-02-28T17:14:34;5.30;91.10
22288;DHT22;11312;51.464;6.968;2023-02-28T17:16:59;5.20;91.70
22288;DHT22;11312;51.464;6.968;2023-02-28T17:19:25;5.10;91.90
22288;DHT22;11312;51.464;6.968;2023-02-28T17:21:51;5.00;93.10
22288;DHT22;11312;51.464;6.968;2023-02-28T17:24:16;5.00;93.30
22288;DHT22;11312;51.464;6.968;2023-02-28T17:26:42;5.00;95.30
22288;DHT22;11312;51.464;6.968;2023-02-28T17:29:21;4.90;95.90
22288;DHT22;11312;51.464;6.968;2023-02-28T17:31:47;5.00;95.90
22288;DHT22;11312;51.464;6.968;2023-02-28T17:34:13;4.90;96.80
22288;DHT22;11312;51.464;6.968;2023-02-28T17:36:48;4.90;95.80
22288;DHT22;11312;51.464;6.968;2023-02-28T17:39:15;4.90;97.30
22288;DHT22;11312;51.464;6.968;2023-02-28T17:41:46;4.80;98.00
22288;DHT22;11312;51.464;6.968;2023-02-28T17:44:11;4.70;99.30
22288;DHT22;11312;51.464;6.968;2023-02-28T17:46:37;4.70;99.90
22288;DHT22;11312;51.464;6.968;2023-02-28T17:49:03;4.60;99.90
22288;DHT22;11312;51.464;6.968;2023-02-28T17:51:29;4.40;99.90
22288;DHT22;11312;51.464;6.968;2023-02-28T17:53:55;4.40;99.90
22288;DHT22;11312;51.464;6.968;2023-02-28T17:56:22;4.30;99.90
22288;DHT22;11312;51.464;6.968;2023-02-28T17:58:49;4.30;99.90
22288;DHT22;11312;51.464;6.968;2023-02-28T18:01:16;4.10;99.90
22288;DHT22;11312;51.464;6.968;2023-02-28T18:03:42;4.10;99.90
22288;DHT22;11312;51.464;6.968;2023-02-28T18:06:25;4.20;99.90
22288;DHT22;11312;51.464;6.968;2023-02-28T18:08:52;4.20;1.00
22288;DHT22;11312;51.464;6.968;2023-02-28T18:11:20;4.00;1.00
22288;DHT22;11312;51.464;6.968;2023-02-28T18:13:48;3.80;1.00
22288;DHT22;11312;51.464;6.968;2023-02-28T18:16:15;3.80;1.00
22288;DHT22;11312;51.464;6.968;2023-02-28T18:18:41;3.60;1.00
22288;DHT22;11312;51.464;6.968;2023-02-28T18:21:08;3.60;1.00
22288;DHT22;11312;51.464;6.968;2023-02-28T18:23:35;3.60;1.00
22288;DHT22;11312;51.464;6.968;2023-02-28T18:26:01;3.60;1.00
22288;DHT22;11312;51.464;6.968;2023-02-28T18:28:26;3.70;1.00